Indian Springs, Indiana
Current Conditions -  °F | °C
As of 4:15 PM on Saturday 25 Oct 2014 (Local Time) from KDCY Reporting Station
Clear Clear  
Wind Chill: 77°   Ceiling: Unl
Heat Index: 79°   Visibility: 10mi
Dew Point: 53°   Wind: 5mph
Humidity: 43%   Direction: 290°WNW
Pressure: 29.97"   Gusts: NA
Location:  38.6262°N, 86.7615°W
Report Text: KDCY 252115Z AUTO 29004KT 10SM CLR 25/12 A2997 RMK AO2 T02520118
Loading
Personal Weather Stations






























Interactive Weather Map New forecast layout! Learn more

10-Day Weather Forecast

Advertisements
Track Severe Weather on mobile